Grenada, California
Current Conditions -  °F | °C
As of 1:53 PM on Friday 28 Nov 2014 (Local Time) from KSIY Reporting Station
Few Clouds Few Clouds  
Wind Chill: 53°   Ceiling: Unl
Heat Index: 53°   Visibility: 10mi
Dew Point: 39°   Wind: 20mph
Humidity: 59%   Direction: 190°S
Pressure: 29.79"   Gusts: NA
Location:  41.65°N, 122.52°W
Report Text: KSIY 282153Z AUTO 19017KT 10SM FEW050 FEW065 12/04 A2979 RMK AO2 RAB09E26 SLP097 P0000 T01170039
Loading
Personal Weather Stations






























Interactive Weather Map New forecast layout! Learn more

10-Day Weather Forecast

Advertisements
Track Severe Weather on mobile